createdAt,value
2017-07-25T00:01:57.580Z,17.87
2017-07-25T00:04:24.978Z,15.53
2017-07-25T00:06:52.379Z,17.53
2017-07-25T00:09:19.776Z,17.50
2017-07-25T00:11:47.175Z,17.43
2017-07-25T00:14:14.583Z,17.67
2017-07-25T00:16:41.979Z,19.60
2017-07-25T00:19:09.382Z,21.67
2017-07-25T00:21:36.782Z,22.50
2017-07-25T00:24:04.182Z,22.30
2017-07-25T00:26:31.578Z,24.53
2017-07-25T00:28:59.291Z,23.63
2017-07-25T00:31:26.690Z,24.50
2017-07-25T00:33:54.095Z,22.50
2017-07-25T00:36:21.702Z,24.00
2017-07-25T00:38:49.104Z,22.60
2017-07-25T00:41:16.494Z,22.93
2017-07-25T00:43:43.919Z,23.93
2017-07-25T00:46:11.306Z,25.83
2017-07-25T00:48:38.707Z,28.27
2017-07-25T00:51:06.116Z,27.30
2017-07-25T00:53:33.506Z,28.47
2017-07-25T00:56:00.902Z,28.20
2017-07-25T00:58:28.298Z,27.53
2017-07-25T01:00:55.702Z,27.10
2017-07-25T01:03:23.094Z,23.53
2017-07-25T01:05:50.499Z,26.87
2017-07-25T01:08:17.895Z,25.33
2017-07-25T01:10:45.298Z,26.00
2017-07-25T01:13:12.998Z,27.30
2017-07-25T01:15:40.414Z,24.83
2017-07-25T01:18:07.810Z,21.83
2017-07-25T01:20:35.226Z,21.00
2017-07-25T01:23:02.623Z,22.40
2017-07-25T01:25:30.027Z,17.90
2017-07-25T01:27:57.431Z,21.10
2017-07-25T01:30:24.827Z,19.07
2017-07-25T01:32:52.228Z,16.87
2017-07-25T01:35:19.643Z,19.10
2017-07-25T01:37:47.042Z,20.40
2017-07-25T01:40:14.438Z,17.73
2017-07-25T01:42:41.840Z,16.47
2017-07-25T01:45:09.239Z,18.20
2017-07-25T01:47:36.646Z,16.77
2017-07-25T01:50:04.037Z,19.93
2017-07-25T01:52:31.439Z,19.60
2017-07-25T01:54:58.834Z,14.67
2017-07-25T01:57:26.259Z,20.30
2017-07-25T01:59:53.659Z,18.53
2017-07-25T02:02:21.051Z,19.93
2017-07-25T02:04:48.450Z,22.23
2017-07-25T02:07:16.122Z,19.30
2017-07-25T02:09:43.783Z,17.77
2017-07-25T02:12:11.188Z,17.97
2017-07-25T02:14:38.586Z,17.80
2017-07-25T02:17:05.979Z,18.33
2017-07-25T02:19:33.379Z,19.77
2017-07-25T02:22:00.783Z,19.30
2017-07-25T02:24:28.187Z,15.93
2017-07-25T02:26:55.611Z,15.70
2017-07-25T02:29:23.002Z,15.57
2017-07-25T02:31:50.404Z,16.70
2017-07-25T02:34:18.043Z,14.17
2017-07-25T02:36:45.623Z,14.97
2017-07-25T02:39:13.011Z,14.23
2017-07-25T02:41:40.627Z,12.93
2017-07-25T02:44:08.278Z,12.50
2017-07-25T02:46:35.674Z,13.90
2017-07-25T02:49:03.086Z,13.37
2017-07-25T02:51:30.480Z,14.87
2017-07-25T02:53:57.878Z,11.63
2017-07-25T02:56:25.275Z,13.50
2017-07-25T02:58:52.683Z,12.47
2017-07-25T03:01:20.083Z,13.90
2017-07-25T03:03:47.482Z,15.60
2017-07-25T03:06:14.874Z,15.70
2017-07-25T03:08:42.281Z,15.90
2017-07-25T03:11:09.674Z,16.13
2017-07-25T03:13:37.086Z,17.20
2017-07-25T03:16:04.535Z,17.40
2017-07-25T03:18:32.167Z,13.60
2017-07-25T03:20:59.562Z,16.60
2017-07-25T03:23:36.533Z,20.23
2017-07-25T03:26:04.158Z,20.10
2017-07-25T03:28:31.550Z,21.57
2017-07-25T03:30:58.957Z,21.17
2017-07-25T03:33:26.353Z,22.70
2017-07-25T03:35:53.759Z,23.50
2017-07-25T03:38:21.155Z,21.20
2017-07-25T03:40:48.550Z,23.33
2017-07-25T03:43:15.976Z,23.37
2017-07-25T03:45:43.358Z,21.73
2017-07-25T03:48:10.777Z,21.67
2017-07-25T03:50:38.171Z,22.60
2017-07-25T03:53:05.574Z,24.20
2017-07-25T03:55:32.967Z,23.43
2017-07-25T03:58:00.371Z,22.27
2017-07-25T04:00:27.773Z,19.87
2017-07-25T04:02:55.168Z,21.00
2017-07-25T04:05:22.847Z,22.77
2017-07-25T04:07:50.250Z,21.20
2017-07-25T04:10:17.650Z,22.33
2017-07-25T04:12:45.047Z,23.17
2017-07-25T04:15:12.447Z,23.07
2017-07-25T04:17:39.851Z,22.50
2017-07-25T04:20:07.250Z,21.10
2017-07-25T04:22:34.646Z,23.43
2017-07-25T04:25:02.052Z,24.53
2017-07-25T04:27:29.447Z,23.77
2017-07-25T04:29:56.848Z,25.33
2017-07-25T04:32:24.250Z,22.93
2017-07-25T04:34:51.639Z,23.30
2017-07-25T04:37:19.038Z,24.00
2017-07-25T04:39:46.726Z,23.00
2017-07-25T04:42:14.122Z,23.03
2017-07-25T04:44:41.515Z,21.47
2017-07-25T04:47:08.931Z,22.40
2017-07-25T04:49:36.319Z,22.87
2017-07-25T04:52:03.722Z,20.53
2017-07-25T04:54:31.114Z,19.97
2017-07-25T04:56:58.533Z,24.70
2017-07-25T04:59:25.928Z,25.40
2017-07-25T05:01:53.439Z,24.53
2017-07-25T05:04:20.838Z,24.07
2017-07-25T05:06:48.250Z,24.63
2017-07-25T05:09:15.633Z,23.30
2017-07-25T05:11:43.039Z,20.17
2017-07-25T05:14:10.437Z,22.20
2017-07-25T05:16:37.843Z,22.37
2017-07-25T05:19:05.240Z,19.80
2017-07-25T05:21:32.689Z,21.03
2017-07-25T05:24:00.057Z,21.40
2017-07-25T05:26:27.459Z,20.13
2017-07-25T05:28:54.847Z,20.80
2017-07-25T05:31:22.330Z,19.13
2017-07-25T05:33:49.763Z,18.43
2017-07-25T05:36:17.182Z,19.40
2017-07-25T05:38:44.867Z,18.17
2017-07-25T05:41:12.262Z,17.30
2017-07-25T05:43:39.682Z,15.67
2017-07-25T05:46:07.072Z,17.90
2017-07-25T05:48:34.471Z,17.70
2017-07-25T05:51:01.876Z,17.00
2017-07-25T05:53:29.278Z,15.90
2017-07-25T05:55:56.666Z,15.00
2017-07-25T05:58:24.060Z,14.60
2017-07-25T06:00:51.522Z,16.17
2017-07-25T06:03:19.222Z,13.37
2017-07-25T06:05:46.886Z,16.30
2017-07-25T06:08:14.468Z,15.90
2017-07-25T06:10:41.886Z,14.67
2017-07-25T06:13:09.363Z,14.70
2017-07-25T06:15:36.742Z,15.73
2017-07-25T06:18:04.157Z,15.13
2017-07-25T06:20:31.542Z,15.70
2017-07-25T06:22:58.945Z,17.50
2017-07-25T06:25:26.339Z,16.97
2017-07-25T06:27:53.733Z,15.07
2017-07-25T06:30:21.354Z,15.70
2017-07-25T06:32:48.750Z,15.97
2017-07-25T06:35:16.147Z,15.00
2017-07-25T06:37:43.538Z,15.23
2017-07-25T06:40:10.939Z,14.70
2017-07-25T06:42:38.633Z,13.63
2017-07-25T06:45:06.023Z,13.60
2017-07-25T06:47:33.419Z,13.40
2017-07-25T06:50:00.839Z,14.40
2017-07-25T06:52:28.223Z,13.60
2017-07-25T06:54:55.621Z,14.73
2017-07-25T06:57:23.025Z,12.80
2017-07-25T06:59:50.410Z,12.80
2017-07-25T07:02:17.795Z,14.27
2017-07-25T07:04:45.194Z,13.57
2017-07-25T07:07:12.594Z,13.03
2017-07-25T07:09:39.985Z,13.30
2017-07-25T07:12:07.376Z,13.10
2017-07-25T07:14:34.762Z,13.37
2017-07-25T07:17:02.168Z,14.47
2017-07-25T07:19:29.556Z,13.03
2017-07-25T07:21:56.950Z,14.70
2017-07-25T07:24:24.349Z,14.37
2017-07-25T07:26:51.776Z,13.80
2017-07-25T07:29:19.183Z,13.90
2017-07-25T07:31:46.576Z,14.77
2017-07-25T07:34:13.986Z,13.27
2017-07-25T07:36:41.375Z,13.60
2017-07-25T07:39:08.763Z,15.00
2017-07-25T07:41:36.178Z,14.90
2017-07-25T07:44:03.590Z,14.53
2017-07-25T07:46:30.973Z,16.87
2017-07-25T07:48:58.384Z,17.03
2017-07-25T07:51:25.775Z,15.33
2017-07-25T07:53:53.178Z,16.40
2017-07-25T07:56:20.575Z,16.90
2017-07-25T07:58:47.978Z,17.33
2017-07-25T08:01:15.611Z,14.20
2017-07-25T08:03:43.014Z,14.50
2017-07-25T08:06:10.399Z,15.37
2017-07-25T08:08:37.795Z,14.10
2017-07-25T08:11:05.198Z,15.23
2017-07-25T08:13:32.578Z,15.70
2017-07-25T08:15:59.979Z,15.87
2017-07-25T08:18:27.384Z,15.23
2017-07-25T08:20:54.779Z,14.10
2017-07-25T08:23:22.174Z,15.07
2017-07-25T08:25:49.566Z,13.70
2017-07-25T08:28:16.962Z,13.80
2017-07-25T08:30:44.380Z,13.07
2017-07-25T08:33:11.765Z,13.60
2017-07-25T08:35:39.158Z,12.77
2017-07-25T08:38:06.541Z,12.53
2017-07-25T08:40:33.933Z,12.43
2017-07-25T08:43:01.328Z,12.17
2017-07-25T08:45:28.723Z,11.50
2017-07-25T08:47:56.110Z,11.30
2017-07-25T08:50:23.511Z,12.40
2017-07-25T08:52:50.910Z,11.57
2017-07-25T08:55:18.315Z,11.10
2017-07-25T08:57:45.716Z,11.00
2017-07-25T09:00:13.122Z,9.40
2017-07-25T09:02:40.507Z,7.90
2017-07-25T09:05:07.931Z,10.00
2017-07-25T09:07:35.318Z,6.40
2017-07-25T09:10:02.710Z,5.37
2017-07-25T09:12:30.098Z,5.30
2017-07-25T09:14:57.496Z,7.83
2017-07-25T09:17:24.875Z,8.93
2017-07-25T09:19:52.286Z,10.73
2017-07-25T09:22:19.688Z,10.07
2017-07-25T09:24:47.079Z,11.50
2017-07-25T09:27:14.471Z,9.03
2017-07-25T09:29:41.859Z,11.43
2017-07-25T09:32:09.253Z,10.03
2017-07-25T09:34:36.630Z,12.10
2017-07-25T09:37:04.035Z,11.77
2017-07-25T09:39:31.425Z,13.70
2017-07-25T09:41:58.831Z,10.10
2017-07-25T09:44:26.218Z,11.80
2017-07-25T09:46:53.622Z,12.40
2017-07-25T09:49:21.008Z,13.00
2017-07-25T09:51:48.401Z,13.40
2017-07-25T09:54:15.805Z,12.27
2017-07-25T09:56:43.214Z,12.40
2017-07-25T09:59:10.603Z,12.57
2017-07-25T10:01:38.002Z,11.10
2017-07-25T10:04:05.393Z,13.50
2017-07-25T10:06:32.791Z,13.60
2017-07-25T10:09:00.192Z,14.67
2017-07-25T10:11:27.590Z,13.47
2017-07-25T10:13:55.106Z,11.97
2017-07-25T10:16:22.498Z,12.90
2017-07-25T10:18:49.890Z,12.70
2017-07-25T10:21:17.570Z,14.27
2017-07-25T10:23:44.962Z,13.93
2017-07-25T10:26:12.363Z,14.73
2017-07-25T10:28:39.797Z,13.90
2017-07-25T10:31:07.195Z,12.40
2017-07-25T10:33:34.593Z,15.30
2017-07-25T10:36:02.011Z,12.50
2017-07-25T10:38:29.409Z,13.80
2017-07-25T10:40:56.811Z,11.47
2017-07-25T10:43:24.202Z,14.37
2017-07-25T10:45:51.611Z,13.67
2017-07-25T10:48:19.007Z,14.10
2017-07-25T10:50:46.390Z,11.67
2017-07-25T10:53:13.794Z,13.47
2017-07-25T10:55:41.219Z,11.23
2017-07-25T10:58:08.623Z,14.00
2017-07-25T11:00:36.014Z,12.80
2017-07-25T11:03:03.415Z,12.20
2017-07-25T11:05:30.810Z,10.90
2017-07-25T11:07:58.531Z,12.47
2017-07-25T11:10:25.923Z,12.07
2017-07-25T11:12:53.319Z,11.80
2017-07-25T11:15:20.710Z,11.40
2017-07-25T11:17:48.109Z,12.60
2017-07-25T11:20:15.508Z,11.20
2017-07-25T11:22:42.932Z,11.67
2017-07-25T11:25:10.319Z,10.70
2017-07-25T11:27:37.715Z,9.87
2017-07-25T11:30:05.105Z,12.50
2017-07-25T11:32:32.496Z,11.03
2017-07-25T11:34:59.879Z,10.53
2017-07-25T11:37:27.282Z,11.50
2017-07-25T11:39:54.683Z,10.90
2017-07-25T11:42:22.074Z,13.17
2017-07-25T11:44:49.462Z,12.37
2017-07-25T11:47:16.858Z,12.30
2017-07-25T11:49:44.242Z,11.63
2017-07-25T11:52:11.662Z,13.83
2017-07-25T11:54:39.062Z,13.30
2017-07-25T11:57:06.458Z,13.53
2017-07-25T11:59:34.654Z,13.27
2017-07-25T12:02:02.045Z,16.17
2017-07-25T12:04:29.443Z,15.10
2017-07-25T12:06:56.898Z,16.30
2017-07-25T12:09:24.282Z,15.70
2017-07-25T12:11:51.679Z,16.83
2017-07-25T12:14:19.074Z,15.97
2017-07-25T12:16:46.887Z,15.90
2017-07-25T12:19:14.288Z,13.80
2017-07-25T12:21:46.463Z,13.43
2017-07-25T12:24:13.856Z,13.47
2017-07-25T12:26:41.251Z,13.10
2017-07-25T12:29:08.684Z,14.33
2017-07-25T12:31:36.035Z,12.87
2017-07-25T12:34:03.435Z,14.87
2017-07-25T12:36:30.858Z,11.13
2017-07-25T12:38:58.255Z,13.30
2017-07-25T12:41:25.627Z,7.67
2017-07-25T12:43:53.020Z,6.50
2017-07-25T12:46:20.400Z,4.23
2017-07-25T12:48:47.790Z,4.97
2017-07-25T12:51:15.183Z,4.97
2017-07-25T12:53:42.571Z,5.67
2017-07-25T12:56:09.954Z,4.97
2017-07-25T12:58:37.663Z,4.90
2017-07-25T13:01:17.207Z,4.60
2017-07-25T13:03:44.604Z,5.37
2017-07-25T13:06:12.231Z,5.57
2017-07-25T13:08:39.610Z,5.17
2017-07-25T13:11:06.997Z,4.70
2017-07-25T13:13:34.378Z,4.57
2017-07-25T13:16:01.780Z,5.43
2017-07-25T13:18:29.154Z,3.70
2017-07-25T13:20:56.551Z,2.73
2017-07-25T13:23:23.943Z,2.70
2017-07-25T13:25:51.349Z,2.20
2017-07-25T13:28:18.720Z,2.00
2017-07-25T13:30:46.103Z,2.27
2017-07-25T13:33:13.485Z,2.00
2017-07-25T13:35:40.908Z,2.03
2017-07-25T13:38:08.286Z,2.33
2017-07-25T13:40:35.702Z,2.77
2017-07-25T13:43:03.087Z,1.90
2017-07-25T13:45:30.479Z,2.30
2017-07-25T13:47:57.865Z,2.40
2017-07-25T13:50:25.251Z,3.10
2017-07-25T13:52:52.640Z,3.13
2017-07-25T13:55:20.028Z,2.40
2017-07-25T13:57:47.411Z,2.30
2017-07-25T14:00:14.802Z,3.00
2017-07-25T14:02:42.192Z,3.20
2017-07-25T14:05:09.582Z,3.37
2017-07-25T14:07:36.964Z,2.90
2017-07-25T14:10:04.355Z,2.10
2017-07-25T14:12:31.739Z,2.67
2017-07-25T14:14:59.131Z,2.70
2017-07-25T14:17:26.514Z,2.13
2017-07-25T14:19:53.902Z,2.60
2017-07-25T14:22:21.292Z,1.90
2017-07-25T14:24:48.702Z,1.97
2017-07-25T14:27:16.081Z,1.90
2017-07-25T14:29:43.466Z,1.87
2017-07-25T14:32:10.855Z,2.10
2017-07-25T14:34:38.239Z,1.73
2017-07-25T14:37:05.630Z,1.90
2017-07-25T14:39:33.018Z,1.17
2017-07-25T14:42:00.402Z,1.43
2017-07-25T14:44:27.787Z,1.30
2017-07-25T14:46:55.183Z,1.70
2017-07-25T14:49:25.755Z,1.60
2017-07-25T14:51:53.142Z,1.80
2017-07-25T14:54:20.527Z,1.80
2017-07-25T14:56:47.935Z,2.10
2017-07-25T14:59:15.322Z,2.17
2017-07-25T15:01:42.707Z,2.00
2017-07-25T15:04:10.087Z,2.00
2017-07-25T15:06:37.482Z,1.70
2017-07-25T15:09:04.870Z,1.70
2017-07-25T15:11:32.261Z,1.77
2017-07-25T15:13:59.648Z,1.87
2017-07-25T15:16:27.030Z,1.77
2017-07-25T15:18:54.411Z,2.00
2017-07-25T15:21:21.799Z,2.17
2017-07-25T15:23:49.183Z,2.73
2017-07-25T15:26:16.578Z,1.90
2017-07-25T15:28:43.959Z,2.27
2017-07-25T15:31:11.346Z,2.50
2017-07-25T15:33:38.738Z,2.40
2017-07-25T15:36:06.132Z,2.60
2017-07-25T15:38:33.541Z,2.77
2017-07-25T15:41:00.927Z,2.70
2017-07-25T15:43:28.295Z,3.03
2017-07-25T15:45:55.671Z,3.20
2017-07-25T15:48:23.075Z,3.40
2017-07-25T15:50:50.463Z,3.90
2017-07-25T15:53:17.870Z,3.07
2017-07-25T15:55:45.238Z,3.10
2017-07-25T15:58:12.635Z,3.60
2017-07-25T16:00:40.023Z,3.73
2017-07-25T16:03:07.411Z,3.67
2017-07-25T16:05:34.812Z,3.33
2017-07-25T16:08:02.203Z,4.40
2017-07-25T16:10:29.582Z,3.57
2017-07-25T16:12:56.965Z,3.00
2017-07-25T16:15:24.353Z,3.90
2017-07-25T16:17:51.801Z,3.80
2017-07-25T16:20:19.188Z,3.93
2017-07-25T16:22:46.587Z,4.23
2017-07-25T16:25:13.968Z,4.37
2017-07-25T16:27:41.358Z,3.80
2017-07-25T16:30:08.978Z,4.70
2017-07-25T16:32:36.371Z,4.40
2017-07-25T16:35:03.751Z,4.13
2017-07-25T16:37:31.136Z,4.70
2017-07-25T16:39:58.526Z,4.60
2017-07-25T16:42:25.914Z,4.30
2017-07-25T16:44:53.298Z,4.47
2017-07-25T16:47:20.691Z,4.50
2017-07-25T16:49:48.078Z,4.00
2017-07-25T16:52:15.466Z,3.80
2017-07-25T16:54:42.852Z,4.37
2017-07-25T16:57:10.251Z,3.97
2017-07-25T16:59:37.638Z,3.97
2017-07-25T17:02:05.030Z,3.90
2017-07-25T17:04:32.415Z,3.83
2017-07-25T17:06:59.804Z,3.97
2017-07-25T17:09:27.220Z,3.67
2017-07-25T17:11:54.598Z,3.43
2017-07-25T17:14:21.985Z,3.83
2017-07-25T17:16:49.377Z,3.60
2017-07-25T17:19:16.838Z,4.10
2017-07-25T17:21:44.239Z,3.27
2017-07-25T17:24:11.624Z,3.73
2017-07-25T17:26:39.001Z,4.17
2017-07-25T17:29:06.614Z,3.33
2017-07-25T17:31:33.995Z,3.93
2017-07-25T17:34:01.382Z,5.20
2017-07-25T17:36:28.772Z,3.73
2017-07-25T17:38:56.164Z,4.60
2017-07-25T17:41:23.547Z,3.97
2017-07-25T17:43:50.944Z,5.07
2017-07-25T17:46:18.323Z,4.23
2017-07-25T17:48:45.719Z,4.53
2017-07-25T17:51:13.106Z,4.70
2017-07-25T17:53:40.489Z,3.70
2017-07-25T17:56:07.867Z,3.17
2017-07-25T17:58:35.267Z,4.47
2017-07-25T18:01:02.651Z,3.10
2017-07-25T18:03:30.049Z,4.50
2017-07-25T18:05:57.430Z,4.57
2017-07-25T18:08:24.825Z,4.20
2017-07-25T18:10:52.234Z,4.50
2017-07-25T18:13:19.627Z,3.73
2017-07-25T18:15:47.012Z,3.90
2017-07-25T18:18:14.402Z,3.27
2017-07-25T18:20:41.812Z,3.67
2017-07-25T18:23:09.179Z,4.60
2017-07-25T18:25:36.570Z,3.80
2017-07-25T18:28:03.956Z,3.53
2017-07-25T18:30:31.347Z,4.10
2017-07-25T18:32:58.786Z,4.33
2017-07-25T18:35:26.180Z,3.67
2017-07-25T18:37:53.635Z,4.20
2017-07-25T18:40:21.018Z,3.53
2017-07-25T18:42:48.407Z,4.37
2017-07-25T18:45:15.809Z,4.00
2017-07-25T18:47:43.189Z,3.23
2017-07-25T18:50:10.587Z,3.43
2017-07-25T18:52:37.975Z,3.90
2017-07-25T18:55:05.359Z,4.13
2017-07-25T18:57:32.738Z,4.47
2017-07-25T19:00:00.126Z,4.53
2017-07-25T19:02:27.510Z,4.97
2017-07-25T19:04:54.898Z,5.17
2017-07-25T19:07:22.569Z,4.40
2017-07-25T19:09:49.950Z,4.50
2017-07-25T19:12:17.335Z,4.20
2017-07-25T19:14:44.727Z,4.47
2017-07-25T19:17:12.114Z,3.77
2017-07-25T19:19:39.508Z,3.80
2017-07-25T19:22:06.980Z,3.97
2017-07-25T19:24:34.354Z,4.07
2017-07-25T19:27:01.737Z,3.63
2017-07-25T19:29:29.148Z,4.33
2017-07-25T19:31:56.539Z,4.03
2017-07-25T19:34:24.148Z,4.80
2017-07-25T19:36:51.539Z,4.80
2017-07-25T19:39:18.920Z,4.03
2017-07-25T19:41:46.306Z,4.30
2017-07-25T19:44:13.756Z,4.33
2017-07-25T19:46:41.138Z,4.30
2017-07-25T19:49:08.520Z,4.47
2017-07-25T19:51:35.907Z,4.50
2017-07-25T19:54:03.294Z,4.20
2017-07-25T19:56:30.666Z,3.93
2017-07-25T19:58:58.055Z,4.20
2017-07-25T20:01:25.451Z,4.80
2017-07-25T20:03:52.830Z,4.13
2017-07-25T20:06:20.219Z,5.00
2017-07-25T20:08:47.602Z,4.50
2017-07-25T20:11:15.214Z,4.80
2017-07-25T20:13:42.594Z,3.83
2017-07-25T20:16:09.993Z,3.60
2017-07-25T20:18:37.367Z,3.73
2017-07-25T20:21:04.766Z,4.00
2017-07-25T20:23:32.150Z,3.60
2017-07-25T20:25:59.548Z,4.27
2017-07-25T20:28:26.922Z,4.30
2017-07-25T20:30:54.313Z,3.90
2017-07-25T20:33:21.690Z,3.30
2017-07-25T20:35:49.087Z,4.20
2017-07-25T20:38:16.471Z,3.93
2017-07-25T20:40:43.862Z,4.27
2017-07-25T20:43:11.240Z,3.70
2017-07-25T20:45:38.834Z,4.50
2017-07-25T20:48:06.223Z,3.70
2017-07-25T20:50:33.603Z,3.87
2017-07-25T20:53:01.002Z,3.73
2017-07-25T20:55:28.386Z,3.43
2017-07-25T20:57:55.784Z,2.80
2017-07-25T21:00:23.170Z,2.97
2017-07-25T21:02:50.555Z,2.83
2017-07-25T21:05:19.274Z,3.37
2017-07-25T21:07:46.666Z,2.97
2017-07-25T21:10:14.262Z,2.57
2017-07-25T21:12:41.654Z,2.70
2017-07-25T21:15:09.042Z,3.30
2017-07-25T21:17:36.436Z,3.10
2017-07-25T21:20:03.820Z,3.13
2017-07-25T21:22:31.206Z,3.27
2017-07-25T21:24:58.599Z,3.60
2017-07-25T21:27:25.989Z,3.40
2017-07-25T21:29:53.374Z,3.60
2017-07-25T21:32:20.767Z,3.10
2017-07-25T21:34:48.161Z,3.40
2017-07-25T21:37:15.546Z,2.93
2017-07-25T21:39:42.936Z,3.57
2017-07-25T21:42:10.320Z,3.60
2017-07-25T21:44:37.711Z,3.17
2017-07-25T21:47:05.099Z,3.70
2017-07-25T21:49:32.497Z,3.30
2017-07-25T21:51:59.888Z,3.70
2017-07-25T21:54:27.272Z,3.70
2017-07-25T21:56:54.657Z,3.83
2017-07-25T21:59:23.292Z,3.70
2017-07-25T22:02:02.568Z,3.60
2017-07-25T22:04:41.642Z,3.87
2017-07-25T22:07:09.034Z,3.40
2017-07-25T22:09:36.419Z,3.70
2017-07-25T22:12:03.808Z,3.87
2017-07-25T22:14:31.411Z,3.70
2017-07-25T22:16:58.794Z,3.30
2017-07-25T22:19:26.408Z,4.63
2017-07-25T22:21:53.791Z,3.53
2017-07-25T22:24:21.203Z,3.50
2017-07-25T22:26:48.585Z,3.73
2017-07-25T22:29:15.975Z,3.80
2017-07-25T22:31:43.363Z,3.47
2017-07-25T22:34:10.755Z,4.10
2017-07-25T22:36:38.139Z,3.13
2017-07-25T22:39:05.536Z,3.70
2017-07-25T22:41:32.915Z,3.17
2017-07-25T22:44:00.310Z,3.00
2017-07-25T22:46:27.695Z,3.50
2017-07-25T22:48:55.083Z,4.73
2017-07-25T22:51:22.869Z,3.93
2017-07-25T22:53:50.267Z,3.50
2017-07-25T22:56:17.655Z,3.03
2017-07-25T22:58:45.035Z,3.20
2017-07-25T23:01:12.430Z,3.87
2017-07-25T23:03:39.815Z,4.57
2017-07-25T23:06:07.221Z,4.03
2017-07-25T23:08:34.591Z,4.33
2017-07-25T23:11:01.984Z,4.17
2017-07-25T23:13:29.591Z,4.37
2017-07-25T23:15:56.974Z,4.60
2017-07-25T23:18:24.351Z,4.50
2017-07-25T23:20:51.739Z,3.93
2017-07-25T23:23:19.131Z,4.27
2017-07-25T23:25:46.527Z,5.37
2017-07-25T23:28:13.915Z,4.70
2017-07-25T23:30:41.311Z,5.20
2017-07-25T23:33:08.696Z,5.77
2017-07-25T23:35:36.086Z,5.07
2017-07-25T23:38:03.511Z,5.30
2017-07-25T23:40:30.899Z,5.83
2017-07-25T23:42:58.278Z,5.37
2017-07-25T23:45:25.744Z,5.07
2017-07-25T23:47:53.128Z,5.60
2017-07-25T23:50:20.529Z,5.60
2017-07-25T23:52:47.911Z,5.30
2017-07-25T23:55:15.304Z,5.53
2017-07-25T23:57:42.697Z,4.80
